createdAt,value
2024-03-05T00:01:42.980Z,8.85
2024-03-05T00:04:11.221Z,9.27
2024-03-05T00:06:39.297Z,8.50
2024-03-05T00:09:07.025Z,8.60
2024-03-05T00:11:34.898Z,8.90
2024-03-05T00:14:02.700Z,9.23
2024-03-05T00:16:30.483Z,8.48
2024-03-05T00:18:58.148Z,8.38
2024-03-05T00:21:25.855Z,9.10
2024-03-05T00:23:53.522Z,8.32
2024-03-05T00:26:22.830Z,8.43
2024-03-05T00:28:50.782Z,8.50
2024-03-05T00:31:18.728Z,9.00
2024-03-05T00:33:47.721Z,9.30
2024-03-05T00:36:15.364Z,8.73
2024-03-05T00:38:43.338Z,9.05
2024-03-05T00:41:10.987Z,9.93
2024-03-05T00:43:38.656Z,9.32
2024-03-05T00:46:07.189Z,9.70
2024-03-05T00:48:35.110Z,9.85
2024-03-05T00:51:03.589Z,10.55
2024-03-05T00:53:31.506Z,10.90
2024-03-05T00:55:59.271Z,11.43
2024-03-05T00:58:27.475Z,11.10
2024-03-05T01:00:55.474Z,11.30
2024-03-05T01:03:23.067Z,11.05
2024-03-05T01:05:50.757Z,11.40
2024-03-05T01:08:18.478Z,12.75
2024-03-05T01:10:47.093Z,13.20
2024-03-05T01:13:15.721Z,14.27
2024-03-05T01:15:43.538Z,18.23
2024-03-05T01:18:11.335Z,19.70
2024-03-05T01:20:42.598Z,20.20
2024-03-05T01:23:14.416Z,19.52
2024-03-05T01:25:42.180Z,21.40
2024-03-05T01:28:09.882Z,20.25
2024-03-05T01:30:41.055Z,20.48
2024-03-05T01:33:10.537Z,19.33
2024-03-05T01:35:38.506Z,18.27
2024-03-05T01:38:06.104Z,16.83
2024-03-05T01:40:33.816Z,14.57
2024-03-05T01:43:01.470Z,14.02
2024-03-05T01:45:29.132Z,15.27
2024-03-05T01:47:58.664Z,15.55
2024-03-05T01:50:26.461Z,14.77
2024-03-05T01:52:54.265Z,14.70
2024-03-05T01:55:22.299Z,15.55
2024-03-05T01:57:52.201Z,14.90
2024-03-05T02:00:21.971Z,14.63
2024-03-05T02:02:50.679Z,14.85
2024-03-05T02:05:18.538Z,14.23
2024-03-05T02:07:47.548Z,15.85
2024-03-05T02:10:15.673Z,15.65
2024-03-05T02:12:43.459Z,15.75
2024-03-05T02:15:14.563Z,15.38
2024-03-05T02:17:43.762Z,15.93
2024-03-05T02:20:13.312Z,15.38
2024-03-05T02:22:43.521Z,14.20
2024-03-05T02:25:11.422Z,14.18
2024-03-05T02:27:40.129Z,13.75
2024-03-05T02:30:12.193Z,14.15
2024-03-05T02:32:43.695Z,13.50
2024-03-05T02:35:15.150Z,14.57
2024-03-05T02:37:43.790Z,12.80
2024-03-05T02:40:14.779Z,12.90
2024-03-05T02:42:42.903Z,11.57
2024-03-05T02:45:16.938Z,11.15
2024-03-05T02:47:44.735Z,11.20
2024-03-05T02:50:12.717Z,11.40
2024-03-05T02:52:41.147Z,11.00
2024-03-05T02:55:12.749Z,10.75
2024-03-05T02:57:44.916Z,10.68
2024-03-05T03:00:22.557Z,10.48
2024-03-05T03:02:50.647Z,9.63
2024-03-05T03:05:18.822Z,10.15
2024-03-05T03:07:46.628Z,9.77
2024-03-05T03:10:14.908Z,9.35
2024-03-05T03:12:42.729Z,9.50
2024-03-05T03:15:10.635Z,10.25
2024-03-05T03:17:44.626Z,10.98
2024-03-05T03:20:16.982Z,10.93
2024-03-05T03:22:45.098Z,10.65
2024-03-05T03:25:14.186Z,9.70
2024-03-05T03:27:42.240Z,11.35
2024-03-05T03:30:15.350Z,11.05
2024-03-05T03:32:43.189Z,11.02
2024-03-05T03:35:12.009Z,11.07
2024-03-05T03:37:39.677Z,11.30
2024-03-05T03:40:09.997Z,10.27
2024-03-05T03:42:37.612Z,10.80
2024-03-05T03:45:05.378Z,9.98
2024-03-05T03:47:35.746Z,9.38
2024-03-05T03:50:03.543Z,9.02
2024-03-05T03:52:32.330Z,9.63
2024-03-05T03:55:00.023Z,9.75
2024-03-05T03:57:27.667Z,9.02
2024-03-05T03:59:55.464Z,8.32
2024-03-05T04:02:23.358Z,9.18
2024-03-05T04:04:51.171Z,8.57
2024-03-05T04:07:19.752Z,7.88
2024-03-05T04:09:47.414Z,8.05
2024-03-05T04:12:15.681Z,8.05
2024-03-05T04:14:43.337Z,7.80
2024-03-05T04:17:11.033Z,7.90
2024-03-05T04:19:38.743Z,7.38
2024-03-05T04:22:06.625Z,7.97
2024-03-05T04:24:37.189Z,7.53
2024-03-05T04:27:05.651Z,7.50
2024-03-05T04:29:34.228Z,7.40
2024-03-05T04:32:09.994Z,6.40
2024-03-05T04:34:40.744Z,6.95
2024-03-05T04:37:10.231Z,6.03
2024-03-05T04:39:38.315Z,5.95
2024-03-05T04:42:08.155Z,6.28
2024-03-05T04:44:36.316Z,6.10
2024-03-05T04:47:05.244Z,6.32
2024-03-05T04:49:32.993Z,6.05
2024-03-05T04:52:00.636Z,5.50
2024-03-05T04:54:28.316Z,5.38
2024-03-05T04:56:56.028Z,5.53
2024-03-05T04:59:23.732Z,6.38
2024-03-05T05:01:51.422Z,5.60
2024-03-05T05:04:19.135Z,5.57
2024-03-05T05:06:46.932Z,5.55
2024-03-05T05:09:16.753Z,5.45
2024-03-05T05:11:44.614Z,5.35
2024-03-05T05:14:12.476Z,6.03
2024-03-05T05:16:40.174Z,5.20
2024-03-05T05:19:07.893Z,5.43
2024-03-05T05:21:35.588Z,4.95
2024-03-05T05:24:03.296Z,5.18
2024-03-05T05:26:31.031Z,5.30
2024-03-05T05:28:58.778Z,13.57
2024-03-05T05:31:27.700Z,6.95
2024-03-05T05:33:57.280Z,5.43
2024-03-05T05:36:24.971Z,4.95
2024-03-05T05:38:52.733Z,5.68
2024-03-05T05:41:23.215Z,5.78
2024-03-05T05:43:51.203Z,5.32
2024-03-05T05:46:24.112Z,4.53
2024-03-05T05:48:52.846Z,5.13
2024-03-05T05:51:22.870Z,4.53
2024-03-05T05:53:51.988Z,4.65
2024-03-05T05:56:19.774Z,5.07
2024-03-05T05:58:47.458Z,4.90
2024-03-05T06:01:15.620Z,5.10
2024-03-05T06:03:45.878Z,5.18
2024-03-05T06:06:20.740Z,4.95
2024-03-05T06:08:48.497Z,5.13
2024-03-05T06:11:16.281Z,4.32
2024-03-05T06:13:44.045Z,5.03
2024-03-05T06:16:11.922Z,4.35
2024-03-05T06:18:40.654Z,7.65
2024-03-05T06:21:08.886Z,4.40
2024-03-05T06:23:37.031Z,4.32
2024-03-05T06:26:18.385Z,4.35
2024-03-05T06:28:46.043Z,3.95
2024-03-05T06:31:14.356Z,4.20
2024-03-05T06:33:42.212Z,3.90
2024-03-05T06:36:12.583Z,4.22
2024-03-05T06:38:40.301Z,3.90
2024-03-05T06:41:08.134Z,7.80
2024-03-05T06:43:39.598Z,5.20
2024-03-05T06:46:11.020Z,5.25
2024-03-05T06:48:48.337Z,4.55
2024-03-05T06:51:32.595Z,4.70
2024-03-05T06:54:18.899Z,4.47
2024-03-05T06:56:46.598Z,5.05
2024-03-05T06:59:15.050Z,5.15
2024-03-05T07:01:42.847Z,5.45
2024-03-05T07:04:10.746Z,4.80
2024-03-05T07:06:38.521Z,5.00
2024-03-05T07:09:06.427Z,4.88
2024-03-05T07:11:35.553Z,11.48
2024-03-05T07:14:03.668Z,6.45
2024-03-05T07:16:33.245Z,5.68
2024-03-05T07:19:02.670Z,5.15
2024-03-05T07:21:30.473Z,4.28
2024-03-05T07:24:00.197Z,4.65
2024-03-05T07:26:29.996Z,4.80
2024-03-05T07:28:58.144Z,5.13
2024-03-05T07:31:27.001Z,5.55
2024-03-05T07:33:55.830Z,5.07
2024-03-05T07:36:24.142Z,4.88
2024-03-05T07:38:51.853Z,6.28
2024-03-05T07:41:29.444Z,5.05
2024-03-05T07:44:02.523Z,5.00
2024-03-05T07:46:30.995Z,5.35
2024-03-05T07:48:59.510Z,5.18
2024-03-05T07:51:29.372Z,4.40
2024-03-05T07:54:01.264Z,5.03
2024-03-05T07:56:29.084Z,5.30
2024-03-05T07:58:57.299Z,5.18
2024-03-05T08:01:25.533Z,5.15
2024-03-05T08:03:53.258Z,6.32
2024-03-05T08:06:20.958Z,5.13
2024-03-05T08:08:48.557Z,4.50
2024-03-05T08:11:16.308Z,5.47
2024-03-05T08:13:46.978Z,6.38
2024-03-05T08:16:14.990Z,5.40
2024-03-05T08:18:42.654Z,4.88
2024-03-05T08:21:10.322Z,7.55
2024-03-05T08:23:38.091Z,6.60
2024-03-05T08:26:06.522Z,6.22
2024-03-05T08:28:34.399Z,7.25
2024-03-05T08:31:02.124Z,6.65
2024-03-05T08:33:29.851Z,6.93
2024-03-05T08:35:57.619Z,6.75
2024-03-05T08:38:26.112Z,6.50
2024-03-05T08:40:53.820Z,7.32
2024-03-05T08:43:21.534Z,7.55
2024-03-05T08:45:49.209Z,8.60
2024-03-05T08:48:17.239Z,8.32
2024-03-05T08:50:44.965Z,8.13
2024-03-05T08:53:12.661Z,7.90
2024-03-05T08:55:40.378Z,8.00
2024-03-05T08:58:10.457Z,8.35
2024-03-05T09:00:43.163Z,8.00
2024-03-05T09:03:13.250Z,7.25
2024-03-05T09:05:45.359Z,7.90
2024-03-05T09:08:15.602Z,6.85
2024-03-05T09:10:45.952Z,7.68
2024-03-05T09:13:13.863Z,6.88
2024-03-05T09:15:44.269Z,8.23
2024-03-05T09:18:15.662Z,8.50
2024-03-05T09:20:44.304Z,7.50
2024-03-05T09:23:12.416Z,6.53
2024-03-05T09:25:42.953Z,7.20
2024-03-05T09:28:11.391Z,7.13
2024-03-05T09:30:39.299Z,7.00
2024-03-05T09:33:11.321Z,6.82
2024-03-05T09:35:40.169Z,6.75
2024-03-05T09:38:08.571Z,6.68
2024-03-05T09:40:36.634Z,6.22
2024-03-05T09:43:05.692Z,6.25
2024-03-05T09:45:37.657Z,6.20
2024-03-05T09:48:06.700Z,5.63
2024-03-05T09:50:34.659Z,5.55
2024-03-05T09:53:02.749Z,5.50
2024-03-05T09:55:32.117Z,5.60
2024-03-05T09:58:03.963Z,4.90
2024-03-05T10:00:32.433Z,5.15
2024-03-05T10:03:00.142Z,5.20
2024-03-05T10:05:27.850Z,5.63
2024-03-05T10:07:55.595Z,6.20
2024-03-05T10:10:23.488Z,6.60
2024-03-05T10:12:54.241Z,6.22
2024-03-05T10:15:23.420Z,6.20
2024-03-05T10:17:54.168Z,6.70
2024-03-05T10:20:29.268Z,7.03
2024-03-05T10:22:59.466Z,7.68
2024-03-05T10:25:28.282Z,8.77
2024-03-05T10:27:57.134Z,7.93
2024-03-05T10:30:31.998Z,9.63
2024-03-05T10:33:02.175Z,7.38
2024-03-05T10:35:34.605Z,2.40
2024-03-05T10:38:10.848Z,2.25
2024-03-05T10:40:39.900Z,2.15
2024-03-05T10:43:08.704Z,2.25
2024-03-05T10:45:38.827Z,1.80
2024-03-05T10:48:08.725Z,2.00
2024-03-05T10:50:38.263Z,1.85
2024-03-05T10:53:08.394Z,1.83
2024-03-05T10:55:38.111Z,1.98
2024-03-05T10:58:14.386Z,1.95
2024-03-05T11:00:44.874Z,2.13
2024-03-05T11:03:18.412Z,2.10
2024-03-05T11:05:46.856Z,1.92
2024-03-05T11:08:17.046Z,2.00
2024-03-05T11:10:47.695Z,2.00
2024-03-05T11:13:15.672Z,1.88
2024-03-05T11:15:43.439Z,2.50
2024-03-05T11:18:33.243Z,2.47
2024-03-05T11:21:11.399Z,2.15
2024-03-05T11:23:42.118Z,1.83
2024-03-05T11:26:18.132Z,3.55
2024-03-05T11:28:45.874Z,2.55
2024-03-05T11:31:21.408Z,2.38
2024-03-05T11:33:59.924Z,2.42
2024-03-05T11:36:28.307Z,1.70
2024-03-05T11:39:04.362Z,1.90
2024-03-05T11:41:33.243Z,2.25
2024-03-05T11:44:01.173Z,2.25
2024-03-05T11:46:45.990Z,2.97
2024-03-05T11:49:14.436Z,3.40
2024-03-05T11:51:46.457Z,3.10
2024-03-05T11:54:15.501Z,3.10
2024-03-05T11:56:44.277Z,3.17
2024-03-05T11:59:13.272Z,4.20
2024-03-05T12:01:42.891Z,3.33
2024-03-05T12:04:12.960Z,3.85
2024-03-05T12:06:45.100Z,3.97
2024-03-05T12:09:22.648Z,3.35
2024-03-05T12:12:24.126Z,3.03
2024-03-05T12:14:51.956Z,2.22
2024-03-05T12:17:21.132Z,8.38
2024-03-05T12:19:59.271Z,3.40
2024-03-05T12:22:27.278Z,2.67
2024-03-05T12:24:55.226Z,2.63
2024-03-05T12:27:23.412Z,2.80
2024-03-05T12:29:52.945Z,2.53
2024-03-05T12:32:21.432Z,2.42
2024-03-05T12:34:49.892Z,2.38
2024-03-05T12:37:20.498Z,2.88
2024-03-05T12:39:59.137Z,3.35
2024-03-05T12:42:26.843Z,3.83
2024-03-05T12:45:08.433Z,3.28
2024-03-05T12:47:37.641Z,3.08
2024-03-05T12:50:05.862Z,3.22
2024-03-05T12:52:33.632Z,3.70
2024-03-05T12:55:02.329Z,3.45
2024-03-05T12:57:31.010Z,4.55
2024-03-05T13:00:01.973Z,4.80
2024-03-05T13:02:30.332Z,4.30
2024-03-05T13:05:00.113Z,3.75
2024-03-05T13:07:28.206Z,4.63
2024-03-05T13:09:56.317Z,4.93
2024-03-05T13:12:24.703Z,5.45
2024-03-05T13:14:52.540Z,5.18
2024-03-05T13:17:20.739Z,4.88
2024-03-05T13:19:48.568Z,5.25
2024-03-05T13:22:16.356Z,6.13
2024-03-05T13:24:44.398Z,5.60
2024-03-05T13:27:12.254Z,5.32
2024-03-05T13:29:39.905Z,6.75
2024-03-05T13:32:08.034Z,5.07
2024-03-05T13:34:35.745Z,5.50
2024-03-05T13:37:03.489Z,5.38
2024-03-05T13:39:31.221Z,4.50
2024-03-05T13:41:59.453Z,5.03
2024-03-05T13:44:28.559Z,4.88
2024-03-05T13:46:56.270Z,4.38
2024-03-05T13:49:25.406Z,5.47
2024-03-05T13:51:53.235Z,4.60
2024-03-05T13:54:20.945Z,5.38
2024-03-05T13:56:50.172Z,5.35
2024-03-05T13:59:18.063Z,4.60
2024-03-05T14:01:45.743Z,4.25
2024-03-05T14:04:13.429Z,4.63
2024-03-05T14:06:42.240Z,4.30
2024-03-05T14:09:10.725Z,4.22
2024-03-05T14:11:41.600Z,4.50
2024-03-05T14:14:15.225Z,4.88
2024-03-05T14:16:43.029Z,4.40
2024-03-05T14:19:10.850Z,4.35
2024-03-05T14:21:38.462Z,4.72
2024-03-05T14:24:06.361Z,5.18
2024-03-05T14:26:34.169Z,4.90
2024-03-05T14:29:04.792Z,4.70
2024-03-05T14:31:34.437Z,23.23
2024-03-05T14:34:02.614Z,7.80
2024-03-05T14:36:32.550Z,4.85
2024-03-05T14:39:03.216Z,4.90
2024-03-05T14:41:31.164Z,5.05
2024-03-05T14:43:58.832Z,5.90
2024-03-05T14:46:28.981Z,5.10
2024-03-05T14:48:56.707Z,5.70
2024-03-05T14:51:27.168Z,5.13
2024-03-05T14:53:54.936Z,6.50
2024-03-05T14:56:23.026Z,6.15
2024-03-05T14:58:50.860Z,6.03
2024-03-05T15:01:18.823Z,6.15
2024-03-05T15:03:46.515Z,7.10
2024-03-05T15:06:15.904Z,7.70
2024-03-05T15:08:45.033Z,7.55
2024-03-05T15:11:12.813Z,6.88
2024-03-05T15:13:40.654Z,16.40
2024-03-05T15:16:09.107Z,7.78
2024-03-05T15:18:36.775Z,6.50
2024-03-05T15:21:14.967Z,7.45
2024-03-05T15:23:43.600Z,8.40
2024-03-05T15:26:11.863Z,7.82
2024-03-05T15:28:42.054Z,8.27
2024-03-05T15:31:12.442Z,7.28
2024-03-05T15:33:40.709Z,7.15
2024-03-05T15:36:08.772Z,7.40
2024-03-05T15:38:37.084Z,7.78
2024-03-05T15:41:05.409Z,7.45
2024-03-05T15:43:34.816Z,7.40
2024-03-05T15:46:02.821Z,8.05
2024-03-05T15:48:31.797Z,9.75
2024-03-05T15:50:59.943Z,9.70
2024-03-05T15:53:27.749Z,10.45
2024-03-05T15:56:02.850Z,9.65
2024-03-05T15:58:42.836Z,9.88
2024-03-05T16:01:11.496Z,9.93
2024-03-05T16:03:52.115Z,9.77
2024-03-05T16:06:28.715Z,10.95
2024-03-05T16:08:56.570Z,9.82
2024-03-05T16:11:26.677Z,10.60
2024-03-05T16:13:55.083Z,9.88
2024-03-05T16:16:24.849Z,9.07
2024-03-05T16:18:52.753Z,9.75
2024-03-05T16:21:21.315Z,10.18
2024-03-05T16:23:49.017Z,10.05
2024-03-05T16:26:16.868Z,9.77
2024-03-05T16:28:44.642Z,9.93
2024-03-05T16:31:14.588Z,9.85
2024-03-05T16:33:42.552Z,9.80
2024-03-05T16:36:10.320Z,11.85
2024-03-05T16:38:38.175Z,14.13
2024-03-05T16:41:05.894Z,12.00
2024-03-05T16:43:34.325Z,9.80
2024-03-05T16:46:02.109Z,10.38
2024-03-05T16:48:29.781Z,14.45
2024-03-05T16:50:58.084Z,18.05
2024-03-05T16:53:25.780Z,17.40
2024-03-05T16:55:53.560Z,15.32
2024-03-05T16:58:21.205Z,13.35
2024-03-05T17:00:53.489Z,12.88
2024-03-05T17:03:23.205Z,12.65
2024-03-05T17:05:55.519Z,14.30
2024-03-05T17:08:25.750Z,13.93
2024-03-05T17:10:55.807Z,13.55
2024-03-05T17:13:27.434Z,12.63
2024-03-05T17:16:01.481Z,10.82
2024-03-05T17:18:31.974Z,10.73
2024-03-05T17:21:00.151Z,10.25
2024-03-05T17:23:28.524Z,10.80
2024-03-05T17:25:57.626Z,10.10
2024-03-05T17:28:30.312Z,9.18
2024-03-05T17:31:01.189Z,10.02
2024-03-05T17:33:29.358Z,8.65
2024-03-05T17:35:58.763Z,9.38
2024-03-05T17:38:30.341Z,11.65
2024-03-05T17:41:02.121Z,10.35
2024-03-05T17:43:30.786Z,9.38
2024-03-05T17:45:59.641Z,8.77
2024-03-05T17:48:28.435Z,8.30
2024-03-05T17:50:56.244Z,8.50
2024-03-05T17:53:23.925Z,10.02
2024-03-05T17:55:51.738Z,9.35
2024-03-05T17:58:22.897Z,15.18
2024-03-05T18:00:52.595Z,15.73
2024-03-05T18:03:23.477Z,16.50
2024-03-05T18:05:51.673Z,19.63
2024-03-05T18:08:21.039Z,21.10
2024-03-05T18:10:48.939Z,16.80
2024-03-05T18:13:18.678Z,14.48
2024-03-05T18:15:47.837Z,13.65
2024-03-05T18:18:16.119Z,13.20
2024-03-05T18:20:44.757Z,21.98
2024-03-05T18:23:14.199Z,12.50
2024-03-05T18:25:43.304Z,11.68
2024-03-05T18:28:11.335Z,9.75
2024-03-05T18:30:42.941Z,7.38
2024-03-05T18:33:22.482Z,12.13
2024-03-05T18:35:50.787Z,8.32
2024-03-05T18:38:27.693Z,6.25
2024-03-05T18:41:00.113Z,7.45
2024-03-05T18:43:29.735Z,7.18
2024-03-05T18:46:00.465Z,7.50
2024-03-05T18:48:29.393Z,7.68
2024-03-05T18:51:00.285Z,6.43
2024-03-05T18:53:39.249Z,6.50
2024-03-05T18:56:12.615Z,6.05
2024-03-05T18:58:42.168Z,6.88
2024-03-05T19:01:11.456Z,7.30
2024-03-05T19:03:40.053Z,7.78
2024-03-05T19:06:07.858Z,8.13
2024-03-05T19:08:35.580Z,8.40
2024-03-05T19:11:03.418Z,11.18
2024-03-05T19:13:31.986Z,11.27
2024-03-05T19:16:00.191Z,9.85
2024-03-05T19:18:28.178Z,10.27
2024-03-05T19:20:56.598Z,10.80
2024-03-05T19:23:25.058Z,14.07
2024-03-05T19:25:53.662Z,15.98
2024-03-05T19:28:21.921Z,11.48
2024-03-05T19:30:49.813Z,12.20
2024-03-05T19:33:17.545Z,11.93
2024-03-05T19:35:46.064Z,13.48
2024-03-05T19:38:14.348Z,14.38
2024-03-05T19:40:42.107Z,13.95
2024-03-05T19:43:10.153Z,14.63
2024-03-05T19:45:38.952Z,13.18
2024-03-05T19:48:06.886Z,38.35
2024-03-05T19:50:36.680Z,41.00
2024-03-05T19:53:04.864Z,24.73
2024-03-05T19:55:34.640Z,12.20
2024-03-05T19:58:03.835Z,12.35
2024-03-05T20:00:38.096Z,13.60
2024-03-05T20:03:08.944Z,27.08
2024-03-05T20:05:37.412Z,28.58
2024-03-05T20:08:06.138Z,19.17
2024-03-05T20:10:34.297Z,16.48
2024-03-05T20:13:02.068Z,15.23
2024-03-05T20:15:29.804Z,15.77
2024-03-05T20:17:57.537Z,14.57
2024-03-05T20:20:25.430Z,14.65
2024-03-05T20:22:53.167Z,13.90
2024-03-05T20:25:23.480Z,39.60
2024-03-05T20:27:52.867Z,44.60
2024-03-05T20:30:21.672Z,18.10
2024-03-05T20:32:51.104Z,13.70
2024-03-05T20:35:21.807Z,13.52
2024-03-05T20:37:51.303Z,13.93
2024-03-05T20:40:21.424Z,15.80
2024-03-05T20:42:49.435Z,15.70
2024-03-05T20:45:17.400Z,16.02
2024-03-05T20:47:45.192Z,14.40
2024-03-05T20:50:13.297Z,14.27
2024-03-05T20:52:42.236Z,13.95
2024-03-05T20:55:11.478Z,14.57
2024-03-05T20:57:39.838Z,14.50
2024-03-05T21:00:19.945Z,14.95
2024-03-05T21:02:50.475Z,15.80
2024-03-05T21:05:19.758Z,16.40
2024-03-05T21:07:48.014Z,17.88
2024-03-05T21:10:16.727Z,16.80
2024-03-05T21:12:44.683Z,17.42
2024-03-05T21:15:13.621Z,17.67
2024-03-05T21:17:42.192Z,17.90
2024-03-05T21:20:16.878Z,16.98
2024-03-05T21:22:45.193Z,18.13
2024-03-05T21:25:13.019Z,18.02
2024-03-05T21:27:41.763Z,18.60
2024-03-05T21:30:10.785Z,20.15
2024-03-05T21:32:38.585Z,20.45
2024-03-05T21:35:06.877Z,22.17
2024-03-05T21:37:39.590Z,19.23
2024-03-05T21:40:13.370Z,18.85
2024-03-05T21:42:42.992Z,18.48
2024-03-05T21:45:16.140Z,18.88
2024-03-05T21:47:45.018Z,18.17
2024-03-05T21:50:12.939Z,16.95
2024-03-05T21:52:40.792Z,15.73
2024-03-05T21:55:08.787Z,16.02
2024-03-05T21:57:41.179Z,14.88
2024-03-05T22:00:12.836Z,14.30
2024-03-05T22:02:42.179Z,13.85
2024-03-05T22:05:10.760Z,13.07
2024-03-05T22:07:38.609Z,12.25
2024-03-05T22:10:09.417Z,12.07
2024-03-05T22:12:41.782Z,11.20
2024-03-05T22:15:10.521Z,10.77
2024-03-05T22:17:42.365Z,10.88
2024-03-05T22:20:10.918Z,10.40
2024-03-05T22:22:40.095Z,9.90
2024-03-05T22:25:08.544Z,17.55
2024-03-05T22:27:36.596Z,12.85
2024-03-05T22:30:05.298Z,8.50
2024-03-05T22:32:32.989Z,8.30
2024-03-05T22:35:00.825Z,7.43
2024-03-05T22:37:29.823Z,6.68
2024-03-05T22:39:59.293Z,6.30
2024-03-05T22:42:27.070Z,6.93
2024-03-05T22:44:54.769Z,7.03
2024-03-05T22:47:22.531Z,6.28
2024-03-05T22:49:50.246Z,5.43
2024-03-05T22:52:19.874Z,5.13
2024-03-05T22:54:48.495Z,4.65
2024-03-05T22:57:16.329Z,3.92
2024-03-05T22:59:43.990Z,3.85
2024-03-05T23:02:11.677Z,3.15
2024-03-05T23:04:39.467Z,2.60
2024-03-05T23:07:07.165Z,3.00
2024-03-05T23:09:35.852Z,2.33
2024-03-05T23:12:05.101Z,2.30
2024-03-05T23:14:34.051Z,2.00
2024-03-05T23:17:02.068Z,2.33
2024-03-05T23:19:29.911Z,1.95
2024-03-05T23:21:57.796Z,2.15
2024-03-05T23:24:25.430Z,1.77
2024-03-05T23:26:53.117Z,2.03
2024-03-05T23:29:21.418Z,2.22
2024-03-05T23:31:49.154Z,1.65
2024-03-05T23:34:17.624Z,2.20
2024-03-05T23:36:45.295Z,2.42
2024-03-05T23:39:13.051Z,2.47
2024-03-05T23:41:40.999Z,2.22
2024-03-05T23:44:08.997Z,2.10
2024-03-05T23:46:37.561Z,1.70
2024-03-05T23:49:05.260Z,2.03
2024-03-05T23:51:32.914Z,2.03
2024-03-05T23:54:00.608Z,2.28
2024-03-05T23:56:28.266Z,2.90
2024-03-05T23:58:56.127Z,2.42
